createdAt,value
2023-02-09T00:00:11.960Z,103525.59
2023-02-09T00:03:38.081Z,103518.59
2023-02-09T00:07:00.714Z,103510.75
2023-02-09T00:10:24.027Z,103512.50
2023-02-09T00:13:45.182Z,103515.16
2023-02-09T00:17:07.076Z,103507.28
2023-02-09T00:20:28.644Z,103498.53
2023-02-09T00:23:50.575Z,103506.38
2023-02-09T00:27:13.963Z,103495.94
2023-02-09T00:30:35.199Z,103492.44
2023-02-09T00:33:56.827Z,103490.72
2023-02-09T00:37:18.107Z,103485.47
2023-02-09T00:40:41.618Z,103490.69
2023-02-09T00:44:04.859Z,103491.53
2023-02-09T00:47:26.326Z,103479.34
2023-02-09T00:50:47.589Z,103475.00
2023-02-09T00:54:10.337Z,103467.97
2023-02-09T00:57:32.721Z,103473.22
2023-02-09T01:00:55.773Z,103470.56
2023-02-09T01:04:17.540Z,103473.19
2023-02-09T01:07:42.445Z,103471.44
2023-02-09T01:11:08.635Z,103472.25
2023-02-09T01:14:30.240Z,103481.00
2023-02-09T01:17:54.852Z,103478.38
2023-02-09T01:21:19.218Z,103475.78
2023-02-09T01:24:41.503Z,103473.97
2023-02-09T01:28:03.442Z,103466.13
2023-02-09T01:31:27.927Z,103460.88
2023-02-09T01:34:53.359Z,103453.88
2023-02-09T01:38:15.487Z,103443.41
2023-02-09T01:41:37.032Z,103432.06
2023-02-09T01:45:21.316Z,103425.94
2023-02-09T01:48:43.915Z,103412.84
2023-02-09T01:52:10.896Z,103411.94
2023-02-09T01:55:40.473Z,103417.16
2023-02-09T01:59:03.096Z,103403.19
2023-02-09T02:02:25.263Z,103390.97
2023-02-09T02:05:51.003Z,103396.16
2023-02-09T02:09:16.869Z,103394.38
2023-02-09T02:12:40.627Z,103389.97
2023-02-09T02:16:15.223Z,103385.59
2023-02-09T02:20:17.639Z,103384.66
2023-02-09T02:23:49.437Z,103378.53
2023-02-09T02:27:24.892Z,103389.75
2023-02-09T02:31:04.561Z,103387.88
2023-02-09T02:34:34.523Z,103383.44
2023-02-09T02:38:03.540Z,103366.75
2023-02-09T02:41:30.312Z,103364.84
2023-02-09T02:45:00.861Z,103370.72
2023-02-09T02:48:28.852Z,103369.63
2023-02-09T02:51:56.506Z,103362.53
2023-02-09T02:55:21.418Z,103365.88
2023-02-09T02:58:45.328Z,103351.84
2023-02-09T03:02:11.703Z,103356.88
2023-02-09T03:05:34.060Z,103345.44
2023-02-09T03:08:58.549Z,103355.69
2023-02-09T03:12:39.883Z,103344.28
2023-02-09T03:16:21.192Z,103335.53
2023-02-09T03:19:47.396Z,103327.59
2023-02-09T03:23:17.537Z,103320.59
2023-02-09T03:26:46.537Z,103320.53
2023-02-09T03:30:12.565Z,103314.38
2023-02-09T03:33:38.166Z,103313.44
2023-02-09T03:37:00.425Z,103311.63
2023-02-09T03:40:21.930Z,103306.28
2023-02-09T03:44:02.130Z,103304.53
2023-02-09T03:47:23.869Z,103310.56
2023-02-09T03:50:45.807Z,103301.88
2023-02-09T03:54:07.384Z,103296.63
2023-02-09T03:57:29.175Z,103301.78
2023-02-09T04:00:51.884Z,103308.66
2023-02-09T04:04:13.698Z,103305.19
2023-02-09T04:07:35.554Z,103306.00
2023-02-09T04:10:57.638Z,103289.50
2023-02-09T04:14:19.362Z,103288.53
2023-02-09T04:17:42.407Z,103277.22
2023-02-09T04:21:04.288Z,103283.16
2023-02-09T04:24:26.744Z,103278.72
2023-02-09T04:27:48.518Z,103272.56
2023-02-09T04:31:11.007Z,103266.47
2023-02-09T04:34:34.055Z,103262.13
2023-02-09T04:37:55.364Z,103263.88
2023-02-09T04:41:17.117Z,103254.38
2023-02-09T04:44:38.790Z,103250.94
2023-02-09T04:48:00.630Z,103245.75
2023-02-09T04:51:23.263Z,103240.59
2023-02-09T04:54:44.522Z,103230.22
2023-02-09T04:58:24.051Z,103228.63
2023-02-09T05:01:45.463Z,103226.97
2023-02-09T05:05:07.348Z,103241.78
2023-02-09T05:08:31.233Z,103240.22
2023-02-09T05:11:52.658Z,103231.69
2023-02-09T05:15:14.064Z,103231.88
2023-02-09T05:18:37.556Z,103229.44
2023-02-09T05:21:59.193Z,103224.34
2023-02-09T05:25:22.343Z,103215.78
2023-02-09T05:28:44.152Z,103213.34
2023-02-09T05:32:06.348Z,103211.75
2023-02-09T05:35:27.749Z,103204.94
2023-02-09T05:38:49.353Z,103200.72
2023-02-09T05:42:16.944Z,103198.22
2023-02-09T05:45:40.870Z,103198.31
2023-02-09T05:49:02.538Z,103199.25
2023-02-09T05:52:23.743Z,103188.84
2023-02-09T05:55:45.625Z,103200.19
2023-02-09T05:59:08.681Z,103210.72
2023-02-09T06:02:30.488Z,103198.56
2023-02-09T06:05:52.266Z,103199.47
2023-02-09T06:09:14.887Z,103202.13
2023-02-09T06:12:36.586Z,103208.28
2023-02-09T06:15:59.492Z,103205.69
2023-02-09T06:19:22.355Z,103206.56
2023-02-09T06:22:43.818Z,103210.06
2023-02-09T06:26:07.767Z,103208.31
2023-02-09T06:29:29.836Z,103203.97
2023-02-09T06:32:52.602Z,103199.66
2023-02-09T06:36:14.490Z,103215.34
2023-02-09T06:39:36.389Z,103211.00
2023-02-09T06:42:57.894Z,103214.50
2023-02-09T06:46:19.686Z,103220.63
2023-02-09T06:49:43.350Z,103218.03
2023-02-09T06:53:05.244Z,103229.34
2023-02-09T06:56:26.770Z,103219.78
2023-02-09T06:59:48.476Z,103231.97
2023-02-09T07:03:11.135Z,103232.88
2023-02-09T07:06:34.084Z,103232.84
2023-02-09T07:09:55.850Z,103234.59
2023-02-09T07:13:18.727Z,103224.19
2023-02-09T07:16:41.448Z,103232.00
2023-02-09T07:20:03.786Z,103228.53
2023-02-09T07:23:27.709Z,103229.41
2023-02-09T07:26:49.299Z,103232.03
2023-02-09T07:30:12.512Z,103225.94
2023-02-09T07:33:34.663Z,103223.31
2023-02-09T07:36:56.494Z,103212.84
2023-02-09T07:40:20.050Z,103215.50
2023-02-09T07:43:41.486Z,103216.38
2023-02-09T07:47:03.392Z,103216.44
2023-02-09T07:50:25.203Z,103220.81
2023-02-09T07:53:47.529Z,103204.25
2023-02-09T07:57:10.035Z,103202.53
2023-02-09T08:00:31.796Z,103210.44
2023-02-09T08:03:53.527Z,103209.59
2023-02-09T08:07:15.301Z,103215.72
2023-02-09T08:10:37.658Z,103210.50
2023-02-09T08:14:05.692Z,103210.56
2023-02-09T08:17:28.082Z,103215.81
2023-02-09T08:20:50.418Z,103219.31
2023-02-09T08:24:13.946Z,103212.41
2023-02-09T08:27:37.255Z,103205.44
2023-02-09T08:31:00.470Z,103202.81
2023-02-09T08:34:21.916Z,103203.72
2023-02-09T08:37:43.631Z,103204.66
2023-02-09T08:41:06.467Z,103205.53
2023-02-09T08:44:28.560Z,103198.56
2023-02-09T08:47:51.739Z,103211.66
2023-02-09T08:51:15.474Z,103199.47
2023-02-09T08:54:38.028Z,103183.81
2023-02-09T08:58:00.325Z,103186.44
2023-02-09T09:01:22.007Z,103185.56
2023-02-09T09:04:45.305Z,103184.69
2023-02-09T09:08:06.976Z,103189.03
2023-02-09T09:11:29.759Z,103179.44
2023-02-09T09:14:52.629Z,103176.84
2023-02-09T09:18:14.504Z,103184.69
2023-02-09T09:21:37.510Z,103184.69
2023-02-09T09:24:59.189Z,103178.59
2023-02-09T09:28:21.091Z,103175.09
2023-02-09T09:31:42.865Z,103175.97
2023-02-09T09:35:04.667Z,103180.31
2023-02-09T09:38:27.391Z,103180.31
2023-02-09T09:41:53.529Z,103167.22
2023-02-09T09:45:19.721Z,103161.09
2023-02-09T09:48:45.286Z,103153.22
2023-02-09T09:52:10.472Z,103138.31
2023-02-09T09:55:35.041Z,103119.94
2023-02-09T09:58:56.909Z,103112.94
2023-02-09T10:02:23.514Z,103110.25
2023-02-09T10:05:46.106Z,103110.25
2023-02-09T10:09:21.267Z,103102.34
2023-02-09T10:12:49.646Z,103115.44
2023-02-09T10:16:18.619Z,103118.03
2023-02-09T10:19:40.214Z,103129.38
2023-02-09T10:23:01.976Z,103118.84
2023-02-09T10:26:26.050Z,103110.06
2023-02-09T10:29:49.162Z,103116.19
2023-02-09T10:33:15.666Z,103119.66
2023-02-09T10:36:39.491Z,103111.69
2023-02-09T10:40:08.690Z,103095.06
2023-02-09T10:43:33.312Z,103083.66
2023-02-09T10:47:11.832Z,103081.81
2023-02-09T10:50:33.214Z,103070.41
2023-02-09T10:54:02.040Z,103059.88
2023-02-09T10:57:29.483Z,103038.81
2023-02-09T11:00:55.135Z,103030.84
2023-02-09T11:04:22.336Z,103020.31
2023-02-09T11:07:44.291Z,103024.59
2023-02-09T11:11:09.483Z,103028.94
2023-02-09T11:14:31.103Z,103019.25
2023-02-09T11:17:56.816Z,103025.34
2023-02-09T11:21:27.065Z,103016.56
2023-02-09T11:25:03.516Z,103007.75
2023-02-09T11:28:37.228Z,103003.34
2023-02-09T11:32:16.120Z,103017.31
2023-02-09T11:35:47.561Z,103012.81
2023-02-09T11:39:18.744Z,103003.19
2023-02-09T11:42:47.243Z,103000.50
2023-02-09T11:46:15.851Z,102996.09
2023-02-09T11:49:45.493Z,103008.38
2023-02-09T11:53:14.908Z,103001.28
2023-02-09T11:56:41.972Z,102995.09
2023-02-09T12:00:16.771Z,102989.72
2023-02-09T12:03:38.700Z,103001.88
2023-02-09T12:07:03.803Z,102991.34
2023-02-09T12:10:31.407Z,102983.38
2023-02-09T12:14:04.134Z,102982.38
2023-02-09T12:17:31.701Z,102982.22
2023-02-09T12:20:55.793Z,102974.22
2023-02-09T12:24:33.706Z,102975.91
2023-02-09T12:28:17.851Z,102975.03
2023-02-09T12:32:12.881Z,102968.84
2023-02-09T12:35:41.300Z,102955.66
2023-02-09T12:39:23.789Z,102945.91
2023-02-09T12:42:47.302Z,102954.66
2023-02-09T12:46:24.556Z,102951.00
2023-02-09T12:49:46.361Z,102965.00
2023-02-09T12:53:42.075Z,102966.69
2023-02-09T12:57:48.329Z,102974.44
2023-02-09T13:01:12.274Z,102979.59
2023-02-09T13:04:39.308Z,102979.56
2023-02-09T13:08:07.715Z,103001.41
2023-02-09T13:11:34.121Z,102992.63
2023-02-09T13:14:56.030Z,102994.34
2023-02-09T13:18:26.408Z,102989.91
2023-02-09T13:21:57.906Z,103001.28
2023-02-09T13:25:29.818Z,102994.22
2023-02-09T13:29:19.279Z,103000.25
2023-02-09T13:32:56.017Z,102993.16
2023-02-09T13:36:30.144Z,102993.09
2023-02-09T13:39:57.456Z,102980.75
2023-02-09T13:43:25.467Z,102962.25
2023-02-09T13:46:53.140Z,102943.72
2023-02-09T13:50:17.242Z,102951.50
2023-02-09T13:53:40.142Z,102939.19
2023-02-09T13:57:02.090Z,102923.28
2023-02-09T14:00:27.931Z,102934.66
2023-02-09T14:03:58.593Z,102956.50
2023-02-09T14:07:22.843Z,102953.94
2023-02-09T14:10:51.383Z,102945.13
2023-02-09T14:14:17.703Z,102953.88
2023-02-09T14:17:39.929Z,102941.66
2023-02-09T14:21:21.692Z,102921.41
2023-02-09T14:24:44.647Z,102940.69
2023-02-09T14:28:15.890Z,102971.56
2023-02-09T14:31:42.332Z,102971.63
2023-02-09T14:35:18.304Z,102963.72
2023-02-09T14:38:42.728Z,102970.72
2023-02-09T14:42:18.128Z,102968.09
2023-02-09T14:45:43.386Z,102961.06
2023-02-09T14:49:04.843Z,102966.41
2023-02-09T14:52:28.976Z,102962.88
2023-02-09T14:55:50.910Z,102954.09
2023-02-09T14:59:17.158Z,102961.16
2023-02-09T15:02:40.254Z,102942.72
2023-02-09T15:06:04.367Z,102938.41
2023-02-09T15:09:31.161Z,102913.81
2023-02-09T15:12:52.907Z,102889.22
2023-02-09T15:16:14.578Z,102885.75
2023-02-09T15:19:37.881Z,102924.44
2023-02-09T15:23:00.731Z,102926.25
2023-02-09T15:26:22.804Z,102918.41
2023-02-09T15:29:44.194Z,102926.38
2023-02-09T15:33:09.324Z,102933.47
2023-02-09T15:36:32.552Z,102924.78
2023-02-09T15:39:58.610Z,102922.22
2023-02-09T15:43:39.674Z,102928.44
2023-02-09T15:47:18.740Z,102901.34
2023-02-09T15:50:42.254Z,102893.56
2023-02-09T15:54:09.200Z,102903.31
2023-02-09T15:57:30.611Z,102925.28
2023-02-09T16:00:52.458Z,102916.56
2023-02-09T16:04:14.838Z,102907.88
2023-02-09T16:07:37.550Z,102893.09
2023-02-09T16:11:01.422Z,102883.53
2023-02-09T16:14:25.055Z,102886.22
2023-02-09T16:17:46.979Z,102891.63
2023-02-09T16:21:08.883Z,102907.47
2023-02-09T16:24:34.624Z,102905.78
2023-02-09T16:27:58.433Z,102898.84
2023-02-09T16:31:20.335Z,102899.75
2023-02-09T16:34:42.195Z,102891.00
2023-02-09T16:38:04.132Z,102894.59
2023-02-09T16:41:43.272Z,102897.25
2023-02-09T16:45:06.675Z,102899.94
2023-02-09T16:48:31.932Z,102900.00
2023-02-09T16:51:53.685Z,102885.16
2023-02-09T16:55:25.237Z,102897.47
2023-02-09T16:58:48.412Z,102908.94
2023-02-09T17:02:40.826Z,102910.75
2023-02-09T17:06:03.322Z,102926.50
2023-02-09T17:09:24.885Z,102914.31
2023-02-09T17:12:47.051Z,102914.31
2023-02-09T17:16:13.504Z,102896.78
2023-02-09T17:19:47.304Z,102907.34
2023-02-09T17:23:14.508Z,102910.88
2023-02-09T17:26:37.656Z,102920.53
2023-02-09T17:29:59.318Z,102922.34
2023-02-09T17:33:24.301Z,102920.59
2023-02-09T17:36:47.019Z,102920.59
2023-02-09T17:40:09.719Z,102927.66
2023-02-09T17:43:31.600Z,102939.03
2023-02-09T17:46:53.849Z,102927.66
2023-02-09T17:50:15.284Z,102929.44
2023-02-09T17:53:38.179Z,102931.25
2023-02-09T17:56:59.721Z,102938.31
2023-02-09T18:00:22.248Z,102941.81
2023-02-09T18:03:44.003Z,102935.72
2023-02-09T18:07:05.299Z,102947.16
2023-02-09T18:10:29.063Z,102952.41
2023-02-09T18:13:51.016Z,102948.03
2023-02-09T18:17:12.305Z,102940.16
2023-02-09T18:20:35.016Z,102938.47
2023-02-09T18:23:56.132Z,102942.88
2023-02-09T18:27:20.865Z,102938.56
2023-02-09T18:30:42.883Z,102935.97
2023-02-09T18:34:04.584Z,102928.97
2023-02-09T18:37:26.100Z,102935.16
2023-02-09T18:40:47.889Z,102951.81
2023-02-09T18:44:11.526Z,102948.34
2023-02-09T18:47:32.890Z,102938.72
2023-02-09T18:50:54.201Z,102941.34
2023-02-09T18:54:17.126Z,102932.63
2023-02-09T18:57:38.520Z,102937.91
2023-02-09T19:01:01.217Z,102936.19
2023-02-09T19:04:24.894Z,102937.97
2023-02-09T19:07:47.188Z,102942.38
2023-02-09T19:11:14.352Z,102933.59
2023-02-09T19:14:38.903Z,102937.13
2023-02-09T19:18:01.981Z,102928.38
2023-02-09T19:21:23.362Z,102927.56
2023-02-09T19:24:45.763Z,102929.34
2023-02-09T19:28:07.406Z,102934.63
2023-02-09T19:31:29.137Z,102928.53
2023-02-09T19:34:52.505Z,102918.97
2023-02-09T19:38:14.129Z,102918.97
2023-02-09T19:41:35.583Z,102919.84
2023-02-09T19:44:57.381Z,102916.38
2023-02-09T19:48:19.183Z,102912.03
2023-02-09T19:51:42.284Z,102917.28
2023-02-09T19:55:04.188Z,102913.78
2023-02-09T19:58:25.659Z,102916.44
2023-02-09T20:01:47.204Z,102921.66
2023-02-09T20:05:09.528Z,102920.81
2023-02-09T20:08:32.610Z,102933.09
2023-02-09T20:11:54.109Z,102919.06
2023-02-09T20:15:15.938Z,102921.69
2023-02-09T20:18:38.023Z,102917.34
2023-02-09T20:21:59.849Z,102922.56
2023-02-09T20:25:22.764Z,102918.22
2023-02-09T20:28:45.261Z,102922.63
2023-02-09T20:32:07.167Z,102927.88
2023-02-09T20:35:28.713Z,102919.16
2023-02-09T20:38:50.620Z,102918.28
2023-02-09T20:42:31.399Z,102923.53
2023-02-09T20:46:10.358Z,102925.31
2023-02-09T20:49:36.964Z,102917.44
2023-02-09T20:52:58.651Z,102927.97
2023-02-09T20:56:19.855Z,102921.88
2023-02-09T20:59:43.149Z,102928.00
2023-02-09T21:03:06.327Z,102931.53
2023-02-09T21:06:28.965Z,102934.16
2023-02-09T21:09:51.763Z,102936.78
2023-02-09T21:13:13.545Z,102940.31
2023-02-09T21:16:38.218Z,102938.56
2023-02-09T21:20:01.971Z,102952.53
2023-02-09T21:23:24.095Z,102934.19
2023-02-09T21:26:46.270Z,102932.50
2023-02-09T21:30:08.465Z,102935.13
2023-02-09T21:33:31.303Z,102934.31
2023-02-09T21:36:53.501Z,102938.69
2023-02-09T21:40:16.237Z,102937.75
2023-02-09T21:43:37.811Z,102924.63
2023-02-09T21:47:00.570Z,102924.63
2023-02-09T21:50:23.462Z,102930.75
2023-02-09T21:53:44.955Z,102935.97
2023-02-09T21:57:06.974Z,102923.69
2023-02-09T22:00:30.655Z,102933.28
2023-02-09T22:03:57.125Z,102936.72
2023-02-09T22:07:20.016Z,102926.19
2023-02-09T22:10:42.700Z,102931.41
2023-02-09T22:14:04.240Z,102941.03
2023-02-09T22:17:26.197Z,102939.25
2023-02-09T22:20:48.544Z,102950.56
2023-02-09T22:24:13.995Z,102954.03
2023-02-09T22:27:35.627Z,102965.38
2023-02-09T22:30:57.648Z,102964.47
2023-02-09T22:34:19.691Z,102969.69
2023-02-09T22:37:41.323Z,102975.75
2023-02-09T22:41:21.230Z,102981.88
2023-02-09T22:44:43.038Z,102983.53
2023-02-09T22:48:05.212Z,102974.78
2023-02-09T22:51:28.539Z,102979.97
2023-02-09T22:54:50.053Z,102980.78
2023-02-09T22:58:13.376Z,102979.91
2023-02-09T23:01:35.514Z,102972.84
2023-02-09T23:04:57.101Z,102972.84
2023-02-09T23:08:18.936Z,102954.41
2023-02-09T23:11:40.484Z,102955.31
2023-02-09T23:15:03.459Z,102961.44
2023-02-09T23:18:25.092Z,102957.00
2023-02-09T23:21:48.115Z,102957.00
2023-02-09T23:25:09.702Z,102949.06
2023-02-09T23:28:31.699Z,102944.66
2023-02-09T23:31:54.441Z,102940.28
2023-02-09T23:35:17.511Z,102943.78
2023-02-09T23:38:39.361Z,102945.56
2023-02-09T23:42:00.865Z,102942.00
2023-02-09T23:45:22.592Z,102934.06
2023-02-09T23:48:45.956Z,102932.31
2023-02-09T23:52:07.473Z,102942.81
2023-02-09T23:55:28.844Z,102937.53
2023-02-09T23:58:52.766Z,102951.63
